createdAt,value
2019-05-19T00:00:51.298Z,924.56
2019-05-19T00:01:51.582Z,924.56
2019-05-19T00:02:52.559Z,924.54
2019-05-19T00:03:53.001Z,924.5
2019-05-19T00:04:53.986Z,924.53
2019-05-19T00:05:54.656Z,924.53
2019-05-19T00:06:55.052Z,924.52
2019-05-19T00:07:55.173Z,924.52
2019-05-19T00:08:55.290Z,924.52
2019-05-19T00:09:55.400Z,924.52
2019-05-19T00:10:55.582Z,924.54
2019-05-19T00:11:55.794Z,924.57
2019-05-19T00:12:56.235Z,924.6
2019-05-19T00:13:56.703Z,924.64
2019-05-19T00:14:56.991Z,924.61
2019-05-19T00:16:00.446Z,924.62
2019-05-19T00:16:58.139Z,924.67
2019-05-19T00:17:58.565Z,924.67
2019-05-19T00:18:59.369Z,924.66
2019-05-19T00:20:00.088Z,924.65
2019-05-19T00:21:00.504Z,924.67
2019-05-19T00:22:01.443Z,924.69
2019-05-19T00:23:02.488Z,924.72
2019-05-19T00:24:03.220Z,924.73
2019-05-19T00:25:03.917Z,924.71
2019-05-19T00:26:04.310Z,924.69
2019-05-19T00:27:05.019Z,924.66
2019-05-19T00:28:05.787Z,924.67
2019-05-19T00:29:06.825Z,924.68
2019-05-19T00:30:07.221Z,924.65
2019-05-19T00:31:08.206Z,924.65
2019-05-19T00:32:08.745Z,924.6
2019-05-19T00:33:08.893Z,924.61
2019-05-19T00:34:09.310Z,924.65
2019-05-19T00:35:09.432Z,924.65
2019-05-19T00:36:10.476Z,924.63
2019-05-19T00:37:11.176Z,924.66
2019-05-19T00:38:11.608Z,924.64
2019-05-19T00:39:12.026Z,924.71
2019-05-19T00:40:12.890Z,924.67
2019-05-19T00:41:13.310Z,924.68
2019-05-19T00:42:13.835Z,924.64
2019-05-19T00:43:14.256Z,924.66
2019-05-19T00:44:14.961Z,924.64
2019-05-19T00:45:15.091Z,924.66
2019-05-19T00:46:15.574Z,924.65
2019-05-19T00:47:15.995Z,924.62
2019-05-19T00:48:16.747Z,924.63
2019-05-19T00:49:17.162Z,924.66
2019-05-19T00:50:17.759Z,924.66
2019-05-19T00:51:18.235Z,924.67
2019-05-19T00:52:18.467Z,924.67
2019-05-19T00:53:19.158Z,924.63
2019-05-19T00:54:19.282Z,924.64
2019-05-19T00:55:20.265Z,924.64
2019-05-19T00:56:20.394Z,924.69
2019-05-19T00:57:20.515Z,924.66
2019-05-19T00:58:21.226Z,924.66
2019-05-19T00:59:21.918Z,924.67
2019-05-19T01:00:22.932Z,924.66
2019-05-19T01:01:23.625Z,924.67
2019-05-19T01:02:24.467Z,924.69
2019-05-19T01:03:25.179Z,924.68
2019-05-19T01:04:25.578Z,924.7
2019-05-19T01:05:25.999Z,924.7
2019-05-19T01:06:26.116Z,924.65
2019-05-19T01:07:26.857Z,924.66
2019-05-19T01:08:27.571Z,924.61
2019-05-19T01:09:27.697Z,924.63
2019-05-19T01:10:28.417Z,924.62
2019-05-19T01:11:29.421Z,924.61
2019-05-19T01:12:29.955Z,924.61
2019-05-19T01:13:30.410Z,924.62
2019-05-19T01:14:30.820Z,924.64
2019-05-19T01:15:31.251Z,924.67
2019-05-19T01:16:31.551Z,924.65
2019-05-19T01:17:32.241Z,924.68
2019-05-19T01:18:32.961Z,924.68
2019-05-19T01:19:33.078Z,924.73
2019-05-19T01:20:34.110Z,924.73
2019-05-19T01:21:34.820Z,924.75
2019-05-19T01:22:35.766Z,924.77
2019-05-19T01:23:36.330Z,924.73
2019-05-19T01:24:36.792Z,924.74
2019-05-19T01:25:36.907Z,924.75
2019-05-19T01:26:37.023Z,924.74
2019-05-19T01:27:38.016Z,924.78
2019-05-19T01:28:38.740Z,924.75
2019-05-19T01:29:38.861Z,924.75
2019-05-19T01:30:38.981Z,924.76
2019-05-19T01:31:39.394Z,924.74
2019-05-19T01:32:40.346Z,924.77
2019-05-19T01:33:40.461Z,924.71
2019-05-19T01:34:40.875Z,924.72
2019-05-19T01:35:41.288Z,924.67
2019-05-19T01:36:41.708Z,924.71
2019-05-19T01:37:41.970Z,924.71
2019-05-19T01:38:42.679Z,924.73
2019-05-19T01:39:43.079Z,924.73
2019-05-19T01:40:43.498Z,924.71
2019-05-19T01:41:43.622Z,924.74
2019-05-19T01:42:43.870Z,924.75
2019-05-19T01:43:44.286Z,924.81
2019-05-19T01:44:44.412Z,924.78
2019-05-19T01:45:45.125Z,924.79
2019-05-19T01:46:45.240Z,924.79
2019-05-19T01:47:45.948Z,924.82
2019-05-19T01:48:46.380Z,924.8
2019-05-19T01:49:46.511Z,924.8
2019-05-19T01:50:46.765Z,924.82
2019-05-19T01:51:46.887Z,924.84
2019-05-19T01:52:47.540Z,924.84
2019-05-19T01:53:47.987Z,924.88
2019-05-19T01:54:48.729Z,924.87
2019-05-19T01:55:48.911Z,924.9
2019-05-19T01:56:49.172Z,924.88
2019-05-19T01:57:49.555Z,924.88
2019-05-19T01:58:50.260Z,924.87
2019-05-19T01:59:50.689Z,924.93
2019-05-19T02:00:51.338Z,924.91
2019-05-19T02:01:51.757Z,924.91
2019-05-19T02:02:52.309Z,924.91
2019-05-19T02:03:52.725Z,924.9
2019-05-19T02:04:53.475Z,924.9
2019-05-19T02:05:53.893Z,924.93
2019-05-19T02:06:54.311Z,924.92
2019-05-19T02:07:54.439Z,924.96
2019-05-19T02:08:54.858Z,924.92
2019-05-19T02:09:54.970Z,924.91
2019-05-19T02:10:55.367Z,924.96
2019-05-19T02:11:55.793Z,924.98
2019-05-19T02:12:56.035Z,924.94
2019-05-19T02:13:56.223Z,924.94
2019-05-19T02:14:57.217Z,924.98
2019-05-19T02:15:57.785Z,924.97
2019-05-19T02:16:58.823Z,924.98
2019-05-19T02:17:59.258Z,924.94
2019-05-19T02:18:59.656Z,924.95
2019-05-19T02:20:00.351Z,924.96
2019-05-19T02:21:00.762Z,924.96
2019-05-19T02:22:01.184Z,924.98
2019-05-19T02:23:02.158Z,924.95
2019-05-19T02:24:02.597Z,925
2019-05-19T02:25:03.600Z,924.95
2019-05-19T02:26:04.061Z,924.92
2019-05-19T02:27:04.751Z,924.96
2019-05-19T02:28:05.460Z,924.98
2019-05-19T02:29:06.450Z,924.95
2019-05-19T02:30:06.869Z,924.93
2019-05-19T02:31:07.334Z,924.96
2019-05-19T02:32:07.684Z,924.96
2019-05-19T02:33:08.396Z,924.93
2019-05-19T02:34:08.815Z,924.94
2019-05-19T02:35:09.288Z,924.92
2019-05-19T02:36:09.990Z,924.92
2019-05-19T02:37:10.422Z,924.91
2019-05-19T02:38:11.129Z,924.93
2019-05-19T02:39:11.535Z,924.92
2019-05-19T02:40:12.291Z,924.99
2019-05-19T02:41:13.030Z,925.02
2019-05-19T02:42:13.452Z,924.97
2019-05-19T02:43:13.976Z,924.99
2019-05-19T02:44:14.403Z,925.01
2019-05-19T02:45:15.418Z,925
2019-05-19T02:46:16.169Z,925.03
2019-05-19T02:47:16.968Z,925.07
2019-05-19T02:48:17.969Z,925.08
2019-05-19T02:49:18.956Z,925.08
2019-05-19T02:50:19.673Z,925.1
2019-05-19T02:51:20.085Z,925.08
2019-05-19T02:52:21.062Z,925.08
2019-05-19T02:53:21.654Z,925.09
2019-05-19T02:54:22.114Z,925.09
2019-05-19T02:55:22.528Z,925.13
2019-05-19T02:56:23.517Z,925.11
2019-05-19T02:57:24.210Z,925.08
2019-05-19T02:58:25.181Z,925.09
2019-05-19T02:59:25.880Z,925.07
2019-05-19T03:00:26.292Z,925.03
2019-05-19T03:01:26.585Z,925.05
2019-05-19T03:02:26.875Z,925.06
2019-05-19T03:03:27.707Z,925.06
2019-05-19T03:04:28.154Z,925.05
2019-05-19T03:05:28.573Z,925.08
2019-05-19T03:06:29.006Z,925.06
2019-05-19T03:07:29.982Z,925.02
2019-05-19T03:08:30.286Z,925.04
2019-05-19T03:09:31.003Z,925.05
2019-05-19T03:10:31.436Z,925.08
2019-05-19T03:11:32.148Z,925.08
2019-05-19T03:12:32.283Z,925.08
2019-05-19T03:13:32.592Z,925.09
2019-05-19T03:14:33.297Z,925.08
2019-05-19T03:15:33.609Z,925.16
2019-05-19T03:16:34.010Z,925.14
2019-05-19T03:17:35.006Z,925.14
2019-05-19T03:18:35.430Z,925.14
2019-05-19T03:19:35.881Z,925.14
2019-05-19T03:20:36.584Z,925.1
2019-05-19T03:21:37.377Z,925.13
2019-05-19T03:22:37.654Z,925.13
2019-05-19T03:23:38.188Z,925.15
2019-05-19T03:24:38.904Z,925.13
2019-05-19T03:25:43.356Z,925.18
2019-05-19T03:26:39.711Z,925.18
2019-05-19T03:27:40.134Z,925.19
2019-05-19T03:28:41.019Z,925.14
2019-05-19T03:29:41.473Z,925.16
2019-05-19T03:30:42.517Z,925.17
2019-05-19T03:31:43.281Z,925.2
2019-05-19T03:32:44.025Z,925.21
2019-05-19T03:33:44.197Z,925.22
2019-05-19T03:34:44.333Z,925.24
2019-05-19T03:35:45.370Z,925.21
2019-05-19T03:36:45.691Z,925.21
2019-05-19T03:37:46.377Z,925.21
2019-05-19T03:38:46.864Z,925.22
2019-05-19T03:39:47.863Z,925.23
2019-05-19T03:40:48.857Z,925.18
2019-05-19T03:41:49.145Z,925.24
2019-05-19T03:42:50.121Z,925.21
2019-05-19T03:43:50.244Z,925.19
2019-05-19T03:44:50.752Z,925.2
2019-05-19T03:45:51.786Z,925.22
2019-05-19T03:46:52.230Z,925.25
2019-05-19T03:47:52.942Z,925.25
2019-05-19T03:48:53.670Z,925.24
2019-05-19T03:49:54.714Z,925.28
2019-05-19T03:50:55.288Z,925.28
2019-05-19T03:51:55.504Z,925.3
2019-05-19T03:52:56.491Z,925.3
2019-05-19T03:53:56.638Z,925.32
2019-05-19T03:54:56.779Z,925.3
2019-05-19T03:55:57.815Z,925.3
2019-05-19T03:56:58.254Z,925.28
2019-05-19T03:57:58.340Z,925.29
2019-05-19T03:58:59.352Z,925.31
2019-05-19T04:00:00.067Z,925.3
2019-05-19T04:01:00.859Z,925.25
2019-05-19T04:02:01.593Z,925.27
2019-05-19T04:03:02.607Z,925.28
2019-05-19T04:04:03.577Z,925.23
2019-05-19T04:05:04.002Z,925.27
2019-05-19T04:06:04.324Z,925.22
2019-05-19T04:07:04.758Z,925.23
2019-05-19T04:08:05.488Z,925.25
2019-05-19T04:09:05.910Z,925.29
2019-05-19T04:10:06.200Z,925.21
2019-05-19T04:11:06.905Z,925.26
2019-05-19T04:12:07.035Z,925.27
2019-05-19T04:13:07.461Z,925.29
2019-05-19T04:14:08.279Z,925.31
2019-05-19T04:15:09.280Z,925.31
2019-05-19T04:16:09.984Z,925.36
2019-05-19T04:17:10.691Z,925.33
2019-05-19T04:18:11.747Z,925.33
2019-05-19T04:19:12.162Z,925.25
2019-05-19T04:20:12.859Z,925.26
2019-05-19T04:21:13.835Z,925.24
2019-05-19T04:22:14.167Z,925.29
2019-05-19T04:23:14.587Z,925.32
2019-05-19T04:24:15.143Z,925.31
2019-05-19T04:25:15.868Z,925.34
2019-05-19T04:26:16.600Z,925.26
2019-05-19T04:27:17.591Z,925.31
2019-05-19T04:28:18.589Z,925.31
2019-05-19T04:29:19.287Z,925.31
2019-05-19T04:30:19.999Z,925.39
2019-05-19T04:31:20.723Z,925.39
2019-05-19T04:32:21.450Z,925.36
2019-05-19T04:33:21.865Z,925.42
2019-05-19T04:34:22.679Z,925.42
2019-05-19T04:35:23.679Z,925.43
2019-05-19T04:36:24.108Z,925.44
2019-05-19T04:37:25.105Z,925.44
2019-05-19T04:38:25.410Z,925.46
2019-05-19T04:39:25.701Z,925.42
2019-05-19T04:40:25.840Z,925.41
2019-05-19T04:41:26.281Z,925.42
2019-05-19T04:42:26.387Z,925.4
2019-05-19T04:43:27.396Z,925.43
2019-05-19T04:44:27.935Z,925.41
2019-05-19T04:45:28.375Z,925.44
2019-05-19T04:46:29.081Z,925.4
2019-05-19T04:47:29.791Z,925.42
2019-05-19T04:48:30.215Z,925.43
2019-05-19T04:49:30.633Z,925.44
2019-05-19T04:50:31.039Z,925.49
2019-05-19T04:51:32.030Z,925.48
2019-05-19T04:52:32.133Z,925.51
2019-05-19T04:53:33.135Z,925.49
2019-05-19T04:54:34.165Z,925.49
2019-05-19T04:55:34.898Z,925.5
2019-05-19T04:56:35.907Z,925.54
2019-05-19T04:57:36.179Z,925.54
2019-05-19T04:58:36.637Z,925.53
2019-05-19T04:59:37.345Z,925.52
2019-05-19T05:00:38.044Z,925.58
2019-05-19T05:01:39.109Z,925.57
2019-05-19T05:02:39.528Z,925.56
2019-05-19T05:03:39.969Z,925.58
2019-05-19T05:04:40.848Z,925.56
2019-05-19T05:05:41.881Z,925.59
2019-05-19T05:06:42.583Z,925.56
2019-05-19T05:07:42.989Z,925.59
2019-05-19T05:08:43.706Z,925.55
2019-05-19T05:09:44.410Z,925.54
2019-05-19T05:10:44.826Z,925.51
2019-05-19T05:11:45.251Z,925.5
2019-05-19T05:12:45.721Z,925.48
2019-05-19T05:13:45.855Z,925.48
2019-05-19T05:14:46.810Z,925.46
2019-05-19T05:15:47.209Z,925.41
2019-05-19T05:16:47.645Z,925.47
2019-05-19T05:17:48.358Z,925.46
2019-05-19T05:18:48.820Z,925.48
2019-05-19T05:19:49.808Z,925.51
2019-05-19T05:20:50.501Z,925.47
2019-05-19T05:21:50.806Z,925.47
2019-05-19T05:22:51.876Z,925.48
2019-05-19T05:23:52.315Z,925.46
2019-05-19T05:24:53.002Z,925.48
2019-05-19T05:25:53.424Z,925.47
2019-05-19T05:26:53.833Z,925.5
2019-05-19T05:27:54.556Z,925.5
2019-05-19T05:28:54.690Z,925.46
2019-05-19T05:29:55.094Z,925.49
2019-05-19T05:30:55.239Z,925.46
2019-05-19T05:31:55.955Z,925.47
2019-05-19T05:32:56.370Z,925.45
2019-05-19T05:33:56.798Z,925.45
2019-05-19T05:34:57.610Z,925.43
2019-05-19T05:35:58.048Z,925.48
2019-05-19T05:36:58.469Z,925.49
2019-05-19T05:37:58.884Z,925.47
2019-05-19T05:38:59.338Z,925.45
2019-05-19T05:40:00.036Z,925.46
2019-05-19T05:41:01.095Z,925.43
2019-05-19T05:42:01.513Z,925.4
2019-05-19T05:43:02.519Z,925.42
2019-05-19T05:44:03.237Z,925.4
2019-05-19T05:45:03.944Z,925.4
2019-05-19T05:46:04.410Z,925.39
2019-05-19T05:47:04.817Z,925.4
2019-05-19T05:48:05.497Z,925.3
2019-05-19T05:49:05.915Z,925.33
2019-05-19T05:50:06.634Z,925.31
2019-05-19T05:51:07.061Z,925.31
2019-05-19T05:52:07.485Z,925.34
2019-05-19T05:53:07.702Z,925.31
2019-05-19T05:54:07.826Z,925.33
2019-05-19T05:55:08.086Z,925.31
2019-05-19T05:56:08.520Z,925.3
2019-05-19T05:57:09.216Z,925.33
2019-05-19T05:58:10.200Z,925.32
2019-05-19T05:59:10.618Z,925.32
2019-05-19T06:00:11.041Z,925.33
2019-05-19T06:01:12.057Z,925.36
2019-05-19T06:02:13.044Z,925.35
2019-05-19T06:03:13.748Z,925.37
2019-05-19T06:04:14.180Z,925.4
2019-05-19T06:05:15.137Z,925.37
2019-05-19T06:06:15.844Z,925.34
2019-05-19T06:07:16.323Z,925.37
2019-05-19T06:08:16.453Z,925.39
2019-05-19T06:09:16.857Z,925.39
2019-05-19T06:10:17.048Z,925.35
2019-05-19T06:11:17.806Z,925.38
2019-05-19T06:12:17.955Z,925.35
2019-05-19T06:13:18.372Z,925.37
2019-05-19T06:14:19.123Z,925.35
2019-05-19T06:15:19.789Z,925.31
2019-05-19T06:16:20.214Z,925.33
2019-05-19T06:17:20.341Z,925.29
2019-05-19T06:18:21.039Z,925.37
2019-05-19T06:19:21.182Z,925.37
2019-05-19T06:20:21.945Z,925.36
2019-05-19T06:21:22.365Z,925.4
2019-05-19T06:22:23.069Z,925.41
2019-05-19T06:23:23.787Z,925.42
2019-05-19T06:24:24.200Z,925.41
2019-05-19T06:25:24.338Z,925.41
2019-05-19T06:26:24.592Z,925.46
2019-05-19T06:27:25.303Z,925.44
2019-05-19T06:28:26.001Z,925.46
2019-05-19T06:29:26.699Z,925.41
2019-05-19T06:30:27.405Z,925.43
2019-05-19T06:31:28.106Z,925.45
2019-05-19T06:32:29.123Z,925.47
2019-05-19T06:33:30.120Z,925.49
2019-05-19T06:34:30.300Z,925.46
2019-05-19T06:35:30.620Z,925.44
2019-05-19T06:36:30.752Z,925.45
2019-05-19T06:37:31.171Z,925.42
2019-05-19T06:38:31.485Z,925.42
2019-05-19T06:39:32.507Z,925.41
2019-05-19T06:40:32.636Z,925.37
2019-05-19T06:41:33.042Z,925.37
2019-05-19T06:42:33.451Z,925.35
2019-05-19T06:43:34.448Z,925.35
2019-05-19T06:44:34.599Z,925.32
2019-05-19T06:45:35.521Z,925.29
2019-05-19T06:46:36.531Z,925.28
2019-05-19T06:47:36.932Z,925.27
2019-05-19T06:48:37.653Z,925.28
2019-05-19T06:49:38.075Z,925.26
2019-05-19T06:50:40.702Z,925.24
2019-05-19T06:51:38.894Z,925.27
2019-05-19T06:52:39.315Z,925.24
2019-05-19T06:53:40.004Z,925.24
2019-05-19T06:54:40.745Z,925.2
2019-05-19T06:55:40.865Z,925.22
2019-05-19T06:56:41.855Z,925.22
2019-05-19T06:57:42.583Z,925.23
2019-05-19T06:58:43.308Z,925.2
2019-05-19T06:59:44.017Z,925.24
2019-05-19T07:00:44.144Z,925.28
2019-05-19T07:01:44.913Z,925.29
2019-05-19T07:02:45.350Z,925.33
2019-05-19T07:03:45.479Z,925.3
2019-05-19T07:04:45.613Z,925.29
2019-05-19T07:05:46.579Z,925.28
2019-05-19T07:06:47.040Z,925.3
2019-05-19T07:07:47.358Z,925.28
2019-05-19T07:08:47.780Z,925.3
2019-05-19T07:09:57.735Z,925.36
2019-05-19T07:10:49.294Z,925.42
2019-05-19T07:11:49.724Z,925.42
2019-05-19T07:12:50.171Z,925.39
2019-05-19T07:13:50.323Z,925.32
2019-05-19T07:14:50.912Z,925.33
2019-05-19T07:15:51.777Z,925.34
2019-05-19T07:16:52.510Z,925.37
2019-05-19T07:17:53.242Z,925.34
2019-05-19T07:18:54.081Z,925.31
2019-05-19T07:19:54.533Z,925.31
2019-05-19T07:20:55.006Z,925.33
2019-05-19T07:21:55.726Z,925.3
2019-05-19T07:22:56.177Z,925.33
2019-05-19T07:23:57.229Z,925.35
2019-05-19T07:24:57.637Z,925.39
2019-05-19T07:25:58.644Z,925.43
2019-05-19T07:26:58.780Z,925.48
2019-05-19T07:27:59.508Z,925.5
2019-05-19T07:29:00.220Z,925.51
2019-05-19T07:30:00.506Z,925.49
2019-05-19T07:31:00.930Z,925.5
2019-05-19T07:32:01.639Z,925.42
2019-05-19T07:33:02.340Z,925.4
2019-05-19T07:34:02.771Z,925.41
2019-05-19T07:35:03.224Z,925.36
2019-05-19T07:36:03.400Z,925.38
2019-05-19T07:37:03.880Z,925.39
2019-05-19T07:38:07.206Z,925.36
2019-05-19T07:39:05.209Z,925.39
2019-05-19T07:40:05.353Z,925.37
2019-05-19T07:41:05.790Z,925.38
2019-05-19T07:42:06.226Z,925.37
2019-05-19T07:43:06.947Z,925.32
2019-05-19T07:44:07.810Z,925.36
2019-05-19T07:45:07.941Z,925.39
2019-05-19T07:46:08.237Z,925.38
2019-05-19T07:47:08.682Z,925.35
2019-05-19T07:48:09.385Z,925.35
2019-05-19T07:49:09.519Z,925.39
2019-05-19T07:50:10.283Z,925.32
2019-05-19T07:51:10.706Z,925.35
2019-05-19T07:52:11.700Z,925.37
2019-05-19T07:53:12.281Z,925.36
2019-05-19T07:54:12.533Z,925.36
2019-05-19T07:55:13.295Z,925.36
2019-05-19T07:56:13.586Z,925.37
2019-05-19T07:57:14.073Z,925.39
2019-05-19T07:58:14.377Z,925.44
2019-05-19T07:59:15.194Z,925.48
2019-05-19T08:00:15.629Z,925.46
2019-05-19T08:01:16.687Z,925.47
2019-05-19T08:02:17.443Z,925.48
2019-05-19T08:03:17.947Z,925.52
2019-05-19T08:04:18.971Z,925.54
2019-05-19T08:05:19.692Z,925.57
2019-05-19T08:06:20.067Z,925.54
2019-05-19T08:07:20.922Z,925.53
2019-05-19T08:08:21.383Z,925.57
2019-05-19T08:09:21.976Z,925.54
2019-05-19T08:10:22.414Z,925.49
2019-05-19T08:11:23.256Z,925.48
2019-05-19T08:12:24.041Z,925.5
2019-05-19T08:13:24.193Z,925.49
2019-05-19T08:14:24.748Z,925.48
2019-05-19T08:15:26.020Z,925.48
2019-05-19T08:16:26.155Z,925.49
2019-05-19T08:17:26.890Z,925.48
2019-05-19T08:18:27.974Z,925.52
2019-05-19T08:19:28.715Z,925.55
2019-05-19T08:20:28.879Z,925.55
2019-05-19T08:21:29.328Z,925.54
2019-05-19T08:22:30.069Z,925.55
2019-05-19T08:23:30.546Z,925.54
2019-05-19T08:24:30.670Z,925.51
2019-05-19T08:25:31.089Z,925.49
2019-05-19T08:26:32.041Z,925.46
2019-05-19T08:27:32.759Z,925.45
2019-05-19T08:28:33.188Z,925.51
2019-05-19T08:29:33.327Z,925.49
2019-05-19T08:30:34.074Z,925.51
2019-05-19T08:31:34.572Z,925.48
2019-05-19T08:32:35.646Z,925.5
2019-05-19T08:33:36.401Z,925.5
2019-05-19T08:34:37.194Z,925.48
2019-05-19T08:35:37.353Z,925.46
2019-05-19T08:36:37.522Z,925.45
2019-05-19T08:37:38.314Z,925.52
2019-05-19T08:38:38.734Z,925.48
2019-05-19T08:39:38.904Z,925.44
2019-05-19T08:40:39.343Z,925.45
2019-05-19T08:41:40.163Z,925.44
2019-05-19T08:42:40.591Z,925.46
2019-05-19T08:43:41.019Z,925.5
2019-05-19T08:44:41.276Z,925.48
2019-05-19T08:45:41.713Z,925.48
2019-05-19T08:46:42.570Z,925.5
2019-05-19T08:47:43.050Z,925.46
2019-05-19T08:48:43.264Z,925.51
2019-05-19T08:49:43.974Z,925.49
2019-05-19T08:50:44.693Z,925.5
2019-05-19T08:51:45.134Z,925.5
2019-05-19T08:52:45.862Z,925.45
2019-05-19T08:53:46.299Z,925.43
2019-05-19T08:54:46.884Z,925.41
2019-05-19T08:55:47.318Z,925.37
2019-05-19T08:56:48.119Z,925.4
2019-05-19T08:57:48.547Z,925.38
2019-05-19T08:58:48.693Z,925.41
2019-05-19T08:59:49.417Z,925.35
2019-05-19T09:00:49.914Z,925.35
2019-05-19T09:01:50.357Z,925.33
2019-05-19T09:02:51.223Z,925.33
2019-05-19T09:03:51.817Z,925.3
2019-05-19T09:04:52.455Z,925.29
2019-05-19T09:05:52.750Z,925.26
2019-05-19T09:06:52.997Z,925.25
2019-05-19T09:07:53.483Z,925.26
2019-05-19T09:08:53.958Z,925.19
2019-05-19T09:09:54.130Z,925.18
2019-05-19T09:10:54.274Z,925.16
2019-05-19T09:11:54.432Z,925.21
2019-05-19T09:12:55.147Z,925.17
2019-05-19T09:13:55.671Z,925.15
2019-05-19T09:14:56.673Z,925.13
2019-05-19T09:15:57.401Z,925.13
2019-05-19T09:16:58.351Z,925.14
2019-05-19T09:17:58.848Z,925.2
2019-05-19T09:18:58.990Z,925.1
2019-05-19T09:19:59.704Z,925.15
2019-05-19T09:21:00.151Z,925.16
2019-05-19T09:22:00.871Z,925.18
2019-05-19T09:23:01.314Z,925.2
2019-05-19T09:24:02.096Z,925.2
2019-05-19T09:25:02.644Z,925.22
2019-05-19T09:26:03.656Z,925.18
2019-05-19T09:27:03.852Z,925.18
2019-05-19T09:28:03.997Z,925.16
2019-05-19T09:29:04.134Z,925.15
2019-05-19T09:30:04.290Z,925.14
2019-05-19T09:31:04.439Z,925.15
2019-05-19T09:32:04.755Z,925.15
2019-05-19T09:33:05.743Z,925.1
2019-05-19T09:34:06.766Z,925.07
2019-05-19T09:35:07.867Z,925.07
2019-05-19T09:36:08.595Z,925.05
2019-05-19T09:37:08.871Z,925.03
2019-05-19T09:38:09.014Z,925.05
2019-05-19T09:39:09.750Z,925.08
2019-05-19T09:40:10.552Z,925.07
2019-05-19T09:41:11.422Z,925.05
2019-05-19T09:42:11.841Z,925.06
2019-05-19T09:43:12.616Z,925.05
2019-05-19T09:44:12.950Z,925.08
2019-05-19T09:45:13.129Z,925.11
2019-05-19T09:46:14.073Z,925.08
2019-05-19T09:47:13.951Z,925.06
2019-05-19T09:48:14.113Z,925.07
2019-05-19T09:49:15.132Z,925.05
2019-05-19T09:50:16.145Z,925.03
2019-05-19T09:51:16.588Z,925.01
2019-05-19T09:52:17.290Z,925.02
2019-05-19T09:53:17.751Z,925.02
2019-05-19T09:54:18.196Z,924.95
2019-05-19T09:55:18.351Z,925
2019-05-19T09:56:19.149Z,925.01
2019-05-19T09:57:19.314Z,925.04
2019-05-19T09:58:20.269Z,925.03
2019-05-19T09:59:20.766Z,924.95
2019-05-19T10:00:21.203Z,924.95
2019-05-19T10:01:21.653Z,924.87
2019-05-19T10:02:21.800Z,924.9
2019-05-19T10:03:21.994Z,924.9
2019-05-19T10:04:22.139Z,924.85
2019-05-19T10:05:22.591Z,924.81
2019-05-19T10:06:22.749Z,924.81
2019-05-19T10:07:24.194Z,924.81
2019-05-19T10:08:24.292Z,924.75
2019-05-19T10:09:24.435Z,924.7
2019-05-19T10:10:25.166Z,924.77
2019-05-19T10:11:26.201Z,924.69
2019-05-19T10:12:27.028Z,924.67
2019-05-19T10:13:27.472Z,924.73
2019-05-19T10:14:27.895Z,924.7
2019-05-19T10:15:28.343Z,924.69
2019-05-19T10:16:28.821Z,924.73
2019-05-19T10:17:29.727Z,924.74
2019-05-19T10:18:29.874Z,924.73
2019-05-19T10:19:30.890Z,924.71
2019-05-19T10:20:31.620Z,924.75
2019-05-19T10:21:32.090Z,924.79
2019-05-19T10:22:32.829Z,924.81
2019-05-19T10:23:33.299Z,924.77
2019-05-19T10:24:33.449Z,924.78
2019-05-19T10:25:33.722Z,924.76
2019-05-19T10:26:34.160Z,924.72
2019-05-19T10:27:35.199Z,924.73
2019-05-19T10:28:36.079Z,924.79
2019-05-19T10:29:36.792Z,924.7
2019-05-19T10:30:37.244Z,924.7
2019-05-19T10:31:37.670Z,924.69
2019-05-19T10:32:38.174Z,924.68
2019-05-19T10:33:38.626Z,924.71
2019-05-19T10:34:39.155Z,924.7
2019-05-19T10:35:39.868Z,924.67
2019-05-19T10:36:40.012Z,924.67
2019-05-19T10:37:40.302Z,924.68
2019-05-19T10:38:40.747Z,924.67
2019-05-19T10:39:41.200Z,924.67
2019-05-19T10:40:41.349Z,924.66
2019-05-19T10:41:41.770Z,924.68
2019-05-19T10:42:42.206Z,924.68
2019-05-19T10:43:42.713Z,924.69
2019-05-19T10:44:43.165Z,924.75
2019-05-19T10:45:43.301Z,924.7
2019-05-19T10:46:43.742Z,924.72
2019-05-19T10:47:44.276Z,924.72
2019-05-19T10:48:44.432Z,924.7
2019-05-19T10:49:45.494Z,924.7
2019-05-19T10:50:45.656Z,924.7
2019-05-19T10:51:46.368Z,924.71
2019-05-19T10:52:46.786Z,924.7
2019-05-19T10:53:47.784Z,924.67
2019-05-19T10:54:47.983Z,924.64
2019-05-19T10:55:48.747Z,924.62
2019-05-19T10:56:48.918Z,924.62
2019-05-19T10:57:49.596Z,924.62
2019-05-19T10:58:50.628Z,924.6
2019-05-19T10:59:51.128Z,924.6
2019-05-19T11:00:51.576Z,924.59
2019-05-19T11:01:52.289Z,924.61
2019-05-19T11:02:53.013Z,924.63
2019-05-19T11:03:53.726Z,924.61
2019-05-19T11:04:53.878Z,924.58
2019-05-19T11:05:54.811Z,924.57
2019-05-19T11:06:55.610Z,924.59
2019-05-19T11:07:56.292Z,924.57
2019-05-19T11:08:56.729Z,924.57
2019-05-19T11:09:57.446Z,924.5
2019-05-19T11:10:57.870Z,924.53
2019-05-19T11:11:58.873Z,924.52
2019-05-19T11:12:59.043Z,924.56
2019-05-19T11:13:59.757Z,924.48
2019-05-19T11:15:00.178Z,924.48
2019-05-19T11:16:00.980Z,924.44
2019-05-19T11:17:01.590Z,924.44
2019-05-19T11:18:02.567Z,924.41
2019-05-19T11:19:02.872Z,924.38
2019-05-19T11:20:03.607Z,924.4
2019-05-19T11:21:04.628Z,924.36
2019-05-19T11:22:04.773Z,924.34
2019-05-19T11:23:05.788Z,924.38
2019-05-19T11:24:06.795Z,924.35
2019-05-19T11:25:06.922Z,924.34
2019-05-19T11:26:07.749Z,924.28
2019-05-19T11:27:10.035Z,924.33
2019-05-19T11:28:09.087Z,924.29
2019-05-19T11:29:09.524Z,924.3
2019-05-19T11:30:09.669Z,924.3
2019-05-19T11:31:10.429Z,924.25
2019-05-19T11:32:10.853Z,924.23
2019-05-19T11:33:12.309Z,924.24
2019-05-19T11:34:12.140Z,924.24
2019-05-19T11:35:12.683Z,924.21
2019-05-19T11:36:13.425Z,924.24
2019-05-19T11:37:14.114Z,924.21
2019-05-19T11:38:14.736Z,924.25
2019-05-19T11:39:15.524Z,924.21
2019-05-19T11:40:15.663Z,924.23
2019-05-19T11:41:16.392Z,924.19
2019-05-19T11:42:17.428Z,924.24
2019-05-19T11:43:18.507Z,924.24
2019-05-19T11:44:18.638Z,924.25
2019-05-19T11:45:19.101Z,924.2
2019-05-19T11:46:19.271Z,924.23
2019-05-19T11:47:19.738Z,924.18
2019-05-19T11:48:20.434Z,924.18
2019-05-19T11:49:20.579Z,924.18
2019-05-19T11:50:20.902Z,924.17
2019-05-19T11:51:21.651Z,924.21
2019-05-19T11:52:23.413Z,924.17
2019-05-19T11:53:23.007Z,924.17
2019-05-19T11:54:23.410Z,924.2
2019-05-19T11:55:24.062Z,924.14
2019-05-19T11:56:24.202Z,924.12
2019-05-19T11:57:24.958Z,924.15
2019-05-19T11:58:25.388Z,924.14
2019-05-19T11:59:26.141Z,924.16
2019-05-19T12:00:26.581Z,924.21
2019-05-19T12:01:27.305Z,924.15
2019-05-19T12:02:27.439Z,924.17
2019-05-19T12:03:27.858Z,924.16
2019-05-19T12:04:28.485Z,924.11
2019-05-19T12:05:29.388Z,924.12
2019-05-19T12:06:38.501Z,924.09
2019-05-19T12:07:29.900Z,924.09
2019-05-19T12:08:29.539Z,924.11
2019-05-19T12:09:30.306Z,924.09
2019-05-19T12:10:30.735Z,924.09
2019-05-19T12:11:31.156Z,924.07
2019-05-19T12:12:31.283Z,924.08
2019-05-19T12:13:34.890Z,924.13
2019-05-19T12:14:32.831Z,924.09
2019-05-19T12:15:33.292Z,924.11
2019-05-19T12:16:33.957Z,924.13
2019-05-19T12:17:34.998Z,924.13
2019-05-19T12:18:35.566Z,924.1
2019-05-19T12:19:35.206Z,924.11
2019-05-19T12:20:35.989Z,924.08
2019-05-19T12:21:36.441Z,924.12
2019-05-19T12:22:36.868Z,924.11
2019-05-19T12:23:37.915Z,924.09
2019-05-19T12:24:38.332Z,924.09
2019-05-19T12:25:39.134Z,924.07
2019-05-19T12:26:40.157Z,924.07
2019-05-19T12:27:40.601Z,924.08
2019-05-19T12:28:41.442Z,924.08
2019-05-19T12:29:42.175Z,924.08
2019-05-19T12:30:43.821Z,924.12
2019-05-19T12:31:43.858Z,924.1
2019-05-19T12:32:44.418Z,924.11
2019-05-19T12:33:51.784Z,924.11
2019-05-19T12:34:45.721Z,924.07
2019-05-19T12:35:46.185Z,924.12
2019-05-19T12:36:46.606Z,924.1
2019-05-19T12:37:47.076Z,924.05
2019-05-19T12:38:47.937Z,924.09